createdAt,value
2023-03-07T00:00:03.652Z,26.80
2023-03-07T00:02:06.509Z,30.13
2023-03-07T00:04:09.805Z,27.43
2023-03-07T00:06:12.622Z,27.27
2023-03-07T00:08:15.335Z,27.67
2023-03-07T00:10:18.659Z,29.03
2023-03-07T00:12:22.298Z,28.33
2023-03-07T00:14:25.087Z,28.40
2023-03-07T00:16:29.229Z,25.57
2023-03-07T00:18:33.104Z,27.67
2023-03-07T00:20:35.912Z,26.50
2023-03-07T00:22:38.809Z,27.60
2023-03-07T00:24:41.623Z,27.27
2023-03-07T00:26:44.325Z,26.60
2023-03-07T00:28:48.180Z,29.07
2023-03-07T00:30:50.921Z,26.33
2023-03-07T00:32:55.796Z,24.47
2023-03-07T00:34:59.843Z,26.33
2023-03-07T00:37:02.621Z,25.63
2023-03-07T00:39:05.436Z,25.47
2023-03-07T00:41:10.048Z,28.77
2023-03-07T00:43:12.748Z,23.93
2023-03-07T00:45:15.587Z,24.00
2023-03-07T00:47:18.336Z,25.10
2023-03-07T00:49:22.408Z,25.30
2023-03-07T00:51:25.463Z,26.00
2023-03-07T00:53:28.466Z,26.00
2023-03-07T00:55:31.258Z,25.10
2023-03-07T00:57:34.003Z,23.90
2023-03-07T00:59:36.782Z,26.50
2023-03-07T01:01:39.708Z,23.93
2023-03-07T01:03:43.100Z,20.80
2023-03-07T01:05:47.747Z,24.03
2023-03-07T01:07:50.541Z,22.77
2023-03-07T01:09:53.560Z,23.90
2023-03-07T01:11:56.361Z,22.73
2023-03-07T01:14:00.480Z,23.33
2023-03-07T01:16:11.019Z,25.07
2023-03-07T01:18:13.985Z,21.17
2023-03-07T01:20:17.072Z,22.20
2023-03-07T01:22:21.159Z,21.60
2023-03-07T01:24:23.895Z,22.73
2023-03-07T01:26:28.957Z,21.07
2023-03-07T01:28:31.701Z,22.27
2023-03-07T01:30:35.073Z,24.37
2023-03-07T01:32:37.904Z,20.00
2023-03-07T01:34:41.076Z,26.60
2023-03-07T01:36:43.899Z,22.27
2023-03-07T01:38:48.384Z,27.20
2023-03-07T01:40:51.288Z,25.50
2023-03-07T01:42:54.054Z,24.40
2023-03-07T01:45:03.835Z,23.90
2023-03-07T01:47:06.686Z,26.00
2023-03-07T01:49:12.940Z,26.50
2023-03-07T01:51:16.154Z,24.63
2023-03-07T01:53:19.012Z,27.93
2023-03-07T01:55:26.483Z,24.33
2023-03-07T01:57:33.658Z,25.80
2023-03-07T01:59:41.528Z,25.13
2023-03-07T02:01:44.486Z,25.63
2023-03-07T02:03:51.679Z,25.77
2023-03-07T02:05:57.869Z,25.87
2023-03-07T02:08:10.537Z,27.17
2023-03-07T02:10:15.171Z,25.13
2023-03-07T02:12:19.642Z,24.93
2023-03-07T02:14:23.393Z,30.63
2023-03-07T02:16:26.643Z,27.07
2023-03-07T02:18:33.022Z,25.40
2023-03-07T02:20:45.696Z,24.00
2023-03-07T02:22:49.648Z,21.87
2023-03-07T02:24:56.145Z,23.67
2023-03-07T02:27:00.463Z,24.80
2023-03-07T02:29:04.116Z,26.00
2023-03-07T02:31:08.315Z,21.87
2023-03-07T02:33:11.086Z,22.63
2023-03-07T02:35:16.356Z,24.60
2023-03-07T02:37:23.634Z,24.23
2023-03-07T02:39:30.116Z,21.97
2023-03-07T02:41:34.963Z,24.07
2023-03-07T02:43:39.161Z,22.40
2023-03-07T02:45:41.900Z,21.33
2023-03-07T02:47:44.987Z,21.20
2023-03-07T02:49:47.695Z,21.90
2023-03-07T02:51:50.446Z,22.13
2023-03-07T02:53:53.275Z,20.60
2023-03-07T02:55:56.229Z,23.53
2023-03-07T02:57:59.133Z,22.33
2023-03-07T03:00:05.132Z,22.67
2023-03-07T03:02:08.212Z,22.57
2023-03-07T03:04:10.952Z,20.90
2023-03-07T03:06:13.791Z,19.87
2023-03-07T03:08:16.616Z,21.00
2023-03-07T03:10:19.619Z,20.10
2023-03-07T03:12:22.367Z,22.27
2023-03-07T03:14:25.300Z,20.20
2023-03-07T03:16:29.394Z,20.70
2023-03-07T03:18:32.569Z,20.80
2023-03-07T03:20:35.368Z,21.63
2023-03-07T03:22:38.444Z,24.47
2023-03-07T03:24:41.640Z,22.20
2023-03-07T03:26:44.391Z,19.97
2023-03-07T03:28:49.472Z,24.67
2023-03-07T03:30:59.088Z,19.07
2023-03-07T03:33:03.293Z,19.33
2023-03-07T03:35:06.888Z,19.67
2023-03-07T03:37:09.630Z,19.10
2023-03-07T03:39:12.388Z,19.10
2023-03-07T03:41:16.897Z,18.80
2023-03-07T03:43:19.911Z,18.37
2023-03-07T03:45:22.602Z,21.23
2023-03-07T03:47:25.429Z,19.70
2023-03-07T03:49:29.515Z,19.83
2023-03-07T03:51:33.261Z,20.20
2023-03-07T03:53:37.584Z,19.90
2023-03-07T03:55:40.317Z,20.80
2023-03-07T03:57:43.093Z,19.27
2023-03-07T03:59:46.399Z,16.67
2023-03-07T04:01:49.557Z,18.37
2023-03-07T04:03:53.900Z,22.87
2023-03-07T04:06:03.015Z,17.43
2023-03-07T04:08:05.867Z,19.90
2023-03-07T04:10:09.664Z,17.93
2023-03-07T04:12:12.434Z,19.00
2023-03-07T04:14:15.253Z,19.13
2023-03-07T04:16:18.887Z,19.83
2023-03-07T04:18:22.609Z,17.70
2023-03-07T04:20:25.341Z,16.97
2023-03-07T04:22:29.407Z,18.50
2023-03-07T04:24:32.222Z,17.60
2023-03-07T04:26:35.748Z,19.20
2023-03-07T04:28:46.204Z,18.87
2023-03-07T04:30:49.767Z,17.10
2023-03-07T04:32:52.565Z,17.30
2023-03-07T04:34:55.323Z,18.27
2023-03-07T04:36:58.088Z,14.50
2023-03-07T04:39:02.303Z,15.97
2023-03-07T04:41:05.332Z,18.70
2023-03-07T04:43:08.405Z,15.53
2023-03-07T04:45:11.998Z,18.10
2023-03-07T04:47:14.776Z,17.47
2023-03-07T04:49:17.585Z,15.07
2023-03-07T04:51:20.334Z,16.40
2023-03-07T04:53:23.261Z,16.93
2023-03-07T04:55:27.486Z,16.63
2023-03-07T04:57:30.249Z,13.87
2023-03-07T04:59:33.202Z,14.40
2023-03-07T05:01:36.044Z,15.20
2023-03-07T05:03:38.883Z,13.63
2023-03-07T05:05:42.057Z,12.53
2023-03-07T05:07:44.893Z,13.63
2023-03-07T05:09:47.621Z,13.37
2023-03-07T05:11:53.597Z,14.50
2023-03-07T05:13:56.442Z,13.17
2023-03-07T05:16:00.420Z,10.80
2023-03-07T05:18:03.440Z,11.90
2023-03-07T05:20:09.972Z,11.43
2023-03-07T05:22:12.684Z,9.73
2023-03-07T05:24:15.703Z,10.50
2023-03-07T05:26:18.455Z,9.83
2023-03-07T05:28:22.538Z,11.83
2023-03-07T05:30:25.342Z,11.00
2023-03-07T05:32:28.280Z,12.80
2023-03-07T05:34:31.095Z,11.97
2023-03-07T05:36:33.812Z,75.90
2023-03-07T05:38:36.719Z,29.83
2023-03-07T05:40:40.146Z,54.87
2023-03-07T05:42:42.960Z,50.83
2023-03-07T05:44:47.209Z,133.73
2023-03-07T05:46:50.026Z,188.97
2023-03-07T05:48:52.764Z,97.73
2023-03-07T05:50:55.481Z,67.50
2023-03-07T05:52:58.245Z,22.00
2023-03-07T05:55:01.045Z,16.80
2023-03-07T05:57:03.780Z,13.67
2023-03-07T05:59:07.632Z,12.30
2023-03-07T06:01:11.701Z,10.80
2023-03-07T06:03:14.493Z,9.27
2023-03-07T06:05:17.475Z,8.37
2023-03-07T06:07:20.162Z,9.13
2023-03-07T06:09:23.572Z,9.87
2023-03-07T06:11:26.380Z,9.57
2023-03-07T06:13:31.007Z,8.77
2023-03-07T06:15:33.703Z,9.00
2023-03-07T06:17:38.267Z,9.43
2023-03-07T06:19:42.450Z,10.97
2023-03-07T06:21:45.557Z,9.47
2023-03-07T06:23:48.558Z,10.33
2023-03-07T06:25:51.270Z,9.63
2023-03-07T06:27:59.633Z,8.83
2023-03-07T06:30:02.812Z,9.57
2023-03-07T06:32:06.102Z,9.33
2023-03-07T06:34:10.273Z,9.10
2023-03-07T06:36:14.639Z,10.23
2023-03-07T06:38:18.620Z,9.57
2023-03-07T06:40:21.622Z,9.77
2023-03-07T06:42:24.328Z,9.60
2023-03-07T06:44:27.119Z,8.90
2023-03-07T06:46:29.855Z,8.33
2023-03-07T06:48:34.772Z,8.50
2023-03-07T06:50:39.131Z,9.37
2023-03-07T06:52:42.270Z,8.57
2023-03-07T06:54:45.037Z,9.07
2023-03-07T06:56:47.915Z,7.93
2023-03-07T06:58:50.643Z,10.10
2023-03-07T07:00:53.342Z,10.77
2023-03-07T07:02:56.261Z,9.00
2023-03-07T07:05:01.089Z,9.03
2023-03-07T07:07:07.062Z,8.77
2023-03-07T07:09:12.615Z,11.33
2023-03-07T07:11:15.489Z,10.67
2023-03-07T07:13:18.223Z,9.10
2023-03-07T07:15:21.088Z,9.63
2023-03-07T07:17:23.862Z,8.63
2023-03-07T07:19:27.041Z,8.17
2023-03-07T07:21:29.840Z,10.50
2023-03-07T07:23:33.947Z,9.90
2023-03-07T07:25:36.745Z,15.20
2023-03-07T07:27:39.465Z,12.90
2023-03-07T07:29:42.207Z,11.23
2023-03-07T07:31:45.219Z,14.13
2023-03-07T07:33:47.966Z,17.20
2023-03-07T07:35:50.778Z,21.30
2023-03-07T07:37:53.508Z,24.93
2023-03-07T07:39:57.521Z,30.03
2023-03-07T07:42:00.278Z,27.30
2023-03-07T07:44:03.069Z,24.63
2023-03-07T07:46:06.594Z,16.60
2023-03-07T07:48:09.324Z,34.60
2023-03-07T07:50:14.163Z,20.20
2023-03-07T07:52:16.881Z,20.13
2023-03-07T07:54:19.808Z,15.03
2023-03-07T07:56:23.956Z,23.33
2023-03-07T07:58:27.074Z,12.73
2023-03-07T08:00:29.885Z,16.20
2023-03-07T08:02:32.654Z,12.33
2023-03-07T08:04:35.563Z,12.00
2023-03-07T08:06:38.346Z,12.90
2023-03-07T08:08:41.094Z,20.20
2023-03-07T08:10:44.243Z,33.57
2023-03-07T08:12:51.446Z,14.70
2023-03-07T08:14:54.179Z,15.73
2023-03-07T08:16:56.914Z,12.50
2023-03-07T08:19:00.537Z,12.73
2023-03-07T08:21:03.300Z,12.90
2023-03-07T08:23:06.402Z,13.77
2023-03-07T08:25:21.644Z,23.93
2023-03-07T08:27:24.390Z,24.23
2023-03-07T08:29:29.089Z,38.67
2023-03-07T08:31:31.892Z,22.63
2023-03-07T08:33:34.768Z,87.30
2023-03-07T08:35:37.664Z,35.17
2023-03-07T08:37:40.542Z,37.27
2023-03-07T08:39:43.264Z,32.67
2023-03-07T08:41:46.027Z,64.67
2023-03-07T08:43:48.793Z,52.43
2023-03-07T08:45:53.024Z,18.03
2023-03-07T08:47:57.088Z,24.80
2023-03-07T08:50:00.001Z,31.77
2023-03-07T08:52:02.994Z,14.83
2023-03-07T08:54:05.796Z,15.70
2023-03-07T08:56:09.026Z,53.90
2023-03-07T08:58:12.444Z,32.03
2023-03-07T09:00:16.085Z,27.13
2023-03-07T09:02:20.184Z,55.53
2023-03-07T09:04:23.003Z,16.33
2023-03-07T09:06:25.925Z,22.57
2023-03-07T09:08:28.649Z,39.30
2023-03-07T09:10:31.370Z,53.03
2023-03-07T09:12:34.292Z,32.37
2023-03-07T09:14:37.020Z,31.07
2023-03-07T09:16:39.916Z,16.57
2023-03-07T09:18:44.159Z,15.27
2023-03-07T09:20:47.211Z,24.90
2023-03-07T09:22:51.575Z,17.67
2023-03-07T09:24:54.477Z,27.33
2023-03-07T09:26:57.527Z,15.80
2023-03-07T09:29:00.273Z,15.47
2023-03-07T09:31:08.137Z,13.63
2023-03-07T09:33:10.923Z,13.87
2023-03-07T09:35:14.990Z,15.13
2023-03-07T09:37:18.778Z,20.63
2023-03-07T09:39:21.558Z,13.93
2023-03-07T09:41:49.808Z,13.50
2023-03-07T09:43:59.001Z,16.10
2023-03-07T09:46:10.526Z,13.17
2023-03-07T09:48:41.274Z,13.80
2023-03-07T09:50:55.456Z,13.63
2023-03-07T09:53:03.900Z,13.37
2023-03-07T09:55:12.597Z,11.47
2023-03-07T09:57:19.902Z,15.00
2023-03-07T09:59:32.058Z,14.23
2023-03-07T10:01:38.929Z,15.93
2023-03-07T10:03:49.832Z,17.30
2023-03-07T10:05:57.008Z,15.87
2023-03-07T10:08:02.197Z,12.53
2023-03-07T10:10:11.707Z,14.00
2023-03-07T10:12:32.240Z,14.03
2023-03-07T10:14:50.169Z,13.43
2023-03-07T10:17:02.026Z,12.70
2023-03-07T10:19:14.038Z,14.50
2023-03-07T10:21:26.436Z,11.17
2023-03-07T10:23:41.102Z,14.67
2023-03-07T10:25:52.074Z,13.07
2023-03-07T10:28:01.927Z,11.83
2023-03-07T10:30:15.596Z,11.70
2023-03-07T10:32:31.753Z,12.73
2023-03-07T10:34:38.783Z,11.33
2023-03-07T10:36:46.518Z,11.97
2023-03-07T10:38:58.521Z,10.27
2023-03-07T10:41:06.527Z,11.20
2023-03-07T10:43:22.008Z,12.53
2023-03-07T10:45:24.821Z,11.23
2023-03-07T10:47:31.138Z,11.37
2023-03-07T10:49:38.566Z,12.60
2023-03-07T10:51:54.172Z,9.80
2023-03-07T10:53:57.721Z,10.50
2023-03-07T10:56:11.453Z,10.00
2023-03-07T10:58:24.675Z,10.20
2023-03-07T11:00:28.427Z,9.77
2023-03-07T11:02:36.608Z,10.07
2023-03-07T11:04:46.914Z,10.53
2023-03-07T11:06:56.776Z,10.50
2023-03-07T11:09:20.131Z,10.67
2023-03-07T11:11:26.085Z,12.67
2023-03-07T11:13:29.519Z,10.13
2023-03-07T11:15:32.514Z,12.67
2023-03-07T11:17:42.641Z,9.30
2023-03-07T11:19:47.586Z,10.20
2023-03-07T11:21:59.228Z,11.97
2023-03-07T11:24:05.601Z,7.93
2023-03-07T11:26:18.035Z,8.73
2023-03-07T11:28:29.942Z,10.10
2023-03-07T11:30:43.631Z,10.50
2023-03-07T11:33:02.799Z,9.33
2023-03-07T11:35:13.118Z,9.50
2023-03-07T11:37:27.875Z,7.87
2023-03-07T11:39:38.357Z,8.93
2023-03-07T11:41:43.172Z,8.83
2023-03-07T11:43:59.369Z,8.93
2023-03-07T11:46:08.198Z,10.30
2023-03-07T11:48:23.471Z,11.13
2023-03-07T11:50:28.820Z,10.70
2023-03-07T11:52:50.801Z,16.60
2023-03-07T11:55:05.085Z,9.43
2023-03-07T11:57:16.021Z,9.83
2023-03-07T11:59:43.779Z,11.03
2023-03-07T12:01:55.386Z,9.03
2023-03-07T12:04:30.664Z,10.00
2023-03-07T12:06:37.885Z,8.43
2023-03-07T12:08:58.270Z,10.40
2023-03-07T12:11:13.762Z,8.50
2023-03-07T12:13:31.633Z,12.17
2023-03-07T12:15:41.197Z,8.90
2023-03-07T12:17:54.182Z,10.40
2023-03-07T12:20:37.593Z,7.93
2023-03-07T12:22:49.414Z,8.47
2023-03-07T12:25:05.804Z,8.83
2023-03-07T12:27:15.202Z,8.50
2023-03-07T12:29:27.397Z,9.47
2023-03-07T12:31:35.540Z,10.93
2023-03-07T12:33:50.532Z,10.83
2023-03-07T12:35:56.777Z,11.80
2023-03-07T12:38:05.702Z,7.60
2023-03-07T12:40:19.586Z,5.93
2023-03-07T12:42:32.662Z,3.90
2023-03-07T12:44:41.045Z,3.37
2023-03-07T12:46:50.322Z,2.07
2023-03-07T12:48:57.350Z,2.57
2023-03-07T12:51:05.751Z,2.60
2023-03-07T12:53:16.357Z,3.00
2023-03-07T12:55:25.519Z,3.37
2023-03-07T12:57:30.983Z,3.00
2023-03-07T12:59:37.123Z,2.20
2023-03-07T13:01:42.664Z,2.33
2023-03-07T13:03:53.262Z,4.53
2023-03-07T13:05:56.359Z,7.43
2023-03-07T13:07:59.442Z,3.53
2023-03-07T13:10:07.465Z,2.50
2023-03-07T13:12:27.052Z,2.00
2023-03-07T13:14:40.426Z,3.97
2023-03-07T13:16:44.958Z,14.90
2023-03-07T13:18:48.070Z,1.40
2023-03-07T13:21:11.656Z,0.87
2023-03-07T13:23:25.049Z,1.30
2023-03-07T13:26:02.467Z,3.67
2023-03-07T13:28:46.401Z,4.00
2023-03-07T13:31:29.398Z,3.10
2023-03-07T13:33:32.356Z,2.47
2023-03-07T13:35:56.252Z,4.17
2023-03-07T13:37:59.721Z,2.97
2023-03-07T13:40:08.294Z,1.77
2023-03-07T13:42:46.133Z,2.43
2023-03-07T13:44:50.313Z,2.10
2023-03-07T13:46:58.685Z,3.17
2023-03-07T13:49:02.783Z,2.53
2023-03-07T13:51:09.292Z,1.93
2023-03-07T13:53:16.340Z,1.83
2023-03-07T13:55:28.060Z,1.40
2023-03-07T13:57:38.337Z,3.63
2023-03-07T13:59:41.763Z,1.50
2023-03-07T14:01:49.835Z,2.90
2023-03-07T14:03:55.281Z,2.10
2023-03-07T14:06:01.552Z,1.97
2023-03-07T14:08:05.038Z,2.87
2023-03-07T14:10:22.324Z,1.33
2023-03-07T14:12:38.573Z,2.23
2023-03-07T14:14:56.617Z,1.70
2023-03-07T14:17:15.264Z,1.23
2023-03-07T14:19:30.977Z,9.23
2023-03-07T14:21:45.357Z,1.53
2023-03-07T14:24:15.603Z,2.07
2023-03-07T14:26:21.329Z,1.80
2023-03-07T14:28:29.259Z,1.53
2023-03-07T14:30:34.518Z,1.40
2023-03-07T14:32:42.302Z,1.10
2023-03-07T14:34:49.053Z,1.23
2023-03-07T14:36:55.250Z,1.47
2023-03-07T14:39:02.149Z,1.30
2023-03-07T14:41:21.865Z,1.20
2023-03-07T14:43:37.131Z,1.37
2023-03-07T14:45:44.365Z,1.23
2023-03-07T14:48:05.087Z,2.87
2023-03-07T14:50:13.819Z,2.17
2023-03-07T14:52:30.085Z,1.27
2023-03-07T14:54:34.917Z,1.20
2023-03-07T14:56:39.352Z,1.10
2023-03-07T14:58:49.601Z,1.20
2023-03-07T15:01:00.280Z,1.30
2023-03-07T15:03:08.556Z,1.20
2023-03-07T15:05:16.773Z,1.10
2023-03-07T15:07:23.404Z,1.20
2023-03-07T15:09:27.025Z,1.20
2023-03-07T15:11:34.900Z,0.93
2023-03-07T15:13:42.512Z,1.17
2023-03-07T15:15:52.056Z,0.83
2023-03-07T15:17:57.136Z,1.47
2023-03-07T15:20:04.522Z,1.20
2023-03-07T15:22:12.612Z,1.87
2023-03-07T15:24:19.474Z,1.20
2023-03-07T15:26:26.293Z,0.80
2023-03-07T15:28:32.335Z,2.10
2023-03-07T15:30:36.979Z,2.00
2023-03-07T15:32:41.193Z,0.97
2023-03-07T15:34:44.031Z,0.80
2023-03-07T15:36:48.081Z,0.80
2023-03-07T15:38:52.730Z,1.00
2023-03-07T15:40:55.547Z,1.10
2023-03-07T15:42:59.702Z,1.43
2023-03-07T15:45:03.771Z,0.90
2023-03-07T15:47:15.126Z,0.60
2023-03-07T15:49:27.082Z,0.90
2023-03-07T15:51:36.614Z,0.63
2023-03-07T15:53:42.228Z,0.70
2023-03-07T15:55:55.800Z,0.60
2023-03-07T15:58:02.828Z,0.80
2023-03-07T16:00:08.940Z,0.77
2023-03-07T16:02:37.752Z,1.00
2023-03-07T16:04:42.737Z,0.83
2023-03-07T16:06:46.411Z,1.00
2023-03-07T16:08:50.674Z,0.97
2023-03-07T16:10:58.604Z,1.10
2023-03-07T16:13:02.827Z,1.10
2023-03-07T16:15:06.463Z,1.10
2023-03-07T16:17:17.922Z,0.90
2023-03-07T16:19:20.856Z,2.37
2023-03-07T16:21:23.672Z,0.87
2023-03-07T16:23:28.762Z,1.97
2023-03-07T16:25:38.279Z,1.53
2023-03-07T16:27:41.734Z,1.23
2023-03-07T16:29:44.978Z,1.00
2023-03-07T16:31:48.140Z,0.80
2023-03-07T16:33:50.884Z,1.40
2023-03-07T16:35:56.655Z,1.40
2023-03-07T16:37:59.444Z,2.63
2023-03-07T16:40:02.284Z,1.67
2023-03-07T16:42:07.476Z,1.40
2023-03-07T16:44:16.470Z,1.27
2023-03-07T16:46:19.993Z,1.00
2023-03-07T16:48:22.767Z,0.90
2023-03-07T16:50:27.178Z,1.40
2023-03-07T16:52:29.937Z,1.13
2023-03-07T16:54:32.780Z,1.30
2023-03-07T16:56:39.105Z,1.00
2023-03-07T16:58:44.440Z,1.23
2023-03-07T17:00:47.431Z,0.90
2023-03-07T17:02:52.211Z,1.20
2023-03-07T17:04:55.062Z,1.73
2023-03-07T17:07:04.440Z,1.30
2023-03-07T17:09:09.402Z,1.50
2023-03-07T17:11:19.024Z,1.97
2023-03-07T17:13:21.805Z,2.03
2023-03-07T17:15:30.612Z,1.40
2023-03-07T17:17:36.313Z,1.43
2023-03-07T17:19:39.212Z,1.77
2023-03-07T17:21:42.031Z,2.00
2023-03-07T17:23:45.662Z,2.47
2023-03-07T17:25:48.529Z,2.20
2023-03-07T17:27:54.429Z,2.60
2023-03-07T17:29:57.321Z,2.73
2023-03-07T17:32:01.705Z,4.47
2023-03-07T17:34:04.452Z,3.20
2023-03-07T17:36:10.219Z,2.70
2023-03-07T17:38:13.014Z,4.30
2023-03-07T17:40:15.970Z,3.33
2023-03-07T17:42:18.772Z,5.23
2023-03-07T17:44:21.461Z,4.83
2023-03-07T17:46:24.822Z,4.80
2023-03-07T17:48:28.935Z,4.00
2023-03-07T17:50:31.642Z,3.97
2023-03-07T17:52:34.595Z,4.80
2023-03-07T17:54:37.559Z,2.70
2023-03-07T17:56:40.640Z,3.43
2023-03-07T17:58:43.991Z,4.00
2023-03-07T18:00:46.695Z,2.33
2023-03-07T18:02:49.969Z,2.80
2023-03-07T18:04:54.023Z,2.87
2023-03-07T18:06:56.714Z,2.57
2023-03-07T18:08:59.411Z,2.10
2023-03-07T18:11:04.609Z,3.00
2023-03-07T18:13:09.805Z,2.50
2023-03-07T18:15:14.789Z,2.13
2023-03-07T18:17:17.979Z,2.20
2023-03-07T18:19:26.758Z,2.63
2023-03-07T18:21:31.399Z,2.20
2023-03-07T18:23:36.047Z,3.30
2023-03-07T18:25:38.777Z,3.17
2023-03-07T18:27:41.597Z,2.90
2023-03-07T18:29:44.973Z,3.20
2023-03-07T18:31:47.868Z,2.50
2023-03-07T18:33:52.324Z,8.97
2023-03-07T18:35:56.160Z,2.87
2023-03-07T18:38:01.016Z,2.10
2023-03-07T18:40:04.334Z,4.50
2023-03-07T18:42:07.207Z,3.90
2023-03-07T18:44:10.212Z,3.10
2023-03-07T18:46:14.989Z,5.20
2023-03-07T18:48:17.865Z,2.83
2023-03-07T18:50:20.737Z,3.17
2023-03-07T18:52:23.610Z,2.17
2023-03-07T18:54:27.655Z,4.20
2023-03-07T18:56:31.436Z,1.50
2023-03-07T18:58:34.645Z,2.63
2023-03-07T19:00:37.346Z,2.67
2023-03-07T19:02:40.224Z,1.67
2023-03-07T19:04:42.976Z,2.87
2023-03-07T19:06:47.604Z,2.00
2023-03-07T19:08:50.767Z,1.30
2023-03-07T19:10:54.784Z,3.40
2023-03-07T19:12:57.560Z,1.30
2023-03-07T19:15:00.270Z,1.63
2023-03-07T19:17:03.002Z,1.73
2023-03-07T19:19:05.794Z,1.80
2023-03-07T19:21:10.119Z,2.67
2023-03-07T19:23:22.323Z,3.10
2023-03-07T19:25:25.087Z,1.83
2023-03-07T19:27:31.983Z,2.73
2023-03-07T19:29:35.718Z,2.30
2023-03-07T19:31:38.660Z,2.27
2023-03-07T19:33:42.523Z,1.67
2023-03-07T19:35:46.155Z,2.33
2023-03-07T19:37:49.152Z,2.40
2023-03-07T19:39:52.926Z,1.43
2023-03-07T19:41:55.679Z,1.70
2023-03-07T19:44:00.914Z,2.10
2023-03-07T19:46:06.538Z,1.70
2023-03-07T19:48:09.270Z,2.27
2023-03-07T19:50:13.013Z,2.33
2023-03-07T19:52:16.420Z,1.90
2023-03-07T19:54:20.435Z,2.00
2023-03-07T19:56:24.955Z,2.10
2023-03-07T19:58:27.663Z,1.80
2023-03-07T20:00:31.840Z,2.20
2023-03-07T20:02:34.654Z,2.27
2023-03-07T20:04:37.429Z,2.07
2023-03-07T20:06:42.152Z,2.77
2023-03-07T20:08:45.175Z,2.30
2023-03-07T20:10:47.878Z,1.80
2023-03-07T20:12:52.944Z,1.87
2023-03-07T20:14:55.831Z,2.00
2023-03-07T20:17:00.006Z,2.40
2023-03-07T20:19:05.388Z,2.60
2023-03-07T20:21:10.634Z,2.70
2023-03-07T20:23:16.104Z,2.50
2023-03-07T20:25:19.313Z,3.00
2023-03-07T20:27:23.528Z,2.87
2023-03-07T20:29:26.722Z,3.10
2023-03-07T20:31:30.141Z,4.80
2023-03-07T20:33:34.284Z,2.90
2023-03-07T20:35:37.402Z,2.90
2023-03-07T20:37:40.556Z,2.70
2023-03-07T20:39:43.730Z,3.30
2023-03-07T20:41:46.472Z,3.33
2023-03-07T20:43:50.376Z,4.30
2023-03-07T20:45:53.426Z,2.60
2023-03-07T20:47:56.144Z,3.03
2023-03-07T20:50:00.320Z,4.03
2023-03-07T20:52:03.025Z,4.10
2023-03-07T20:54:07.845Z,3.17
2023-03-07T20:56:10.568Z,3.13
2023-03-07T20:58:13.510Z,3.30
2023-03-07T21:00:17.022Z,5.07
2023-03-07T21:02:19.770Z,3.00
2023-03-07T21:04:22.640Z,2.90
2023-03-07T21:06:26.682Z,2.83
2023-03-07T21:08:31.229Z,2.77
2023-03-07T21:10:34.032Z,3.87
2023-03-07T21:12:36.989Z,1.37
2023-03-07T21:14:39.843Z,2.67
2023-03-07T21:16:43.109Z,4.40
2023-03-07T21:18:46.463Z,2.27
2023-03-07T21:20:49.259Z,4.77
2023-03-07T21:22:53.450Z,1.40
2023-03-07T21:24:56.267Z,4.47
2023-03-07T21:26:59.456Z,1.30
2023-03-07T21:29:03.733Z,1.20
2023-03-07T21:31:09.067Z,2.17
2023-03-07T21:33:11.822Z,1.43
2023-03-07T21:35:14.622Z,2.10
2023-03-07T21:37:17.402Z,5.93
2023-03-07T21:39:21.516Z,3.67
2023-03-07T21:41:25.267Z,3.63
2023-03-07T21:43:28.204Z,2.93
2023-03-07T21:45:33.720Z,1.87
2023-03-07T21:47:36.483Z,1.30
2023-03-07T21:49:39.254Z,4.03
2023-03-07T21:51:41.967Z,3.30
2023-03-07T21:53:44.689Z,2.53
2023-03-07T21:55:52.376Z,1.73
2023-03-07T21:57:55.108Z,2.93
2023-03-07T21:59:58.021Z,3.63
2023-03-07T22:02:00.814Z,4.13
2023-03-07T22:04:03.620Z,2.17
2023-03-07T22:06:07.708Z,2.17
2023-03-07T22:08:10.689Z,2.50
2023-03-07T22:10:13.418Z,2.57
2023-03-07T22:12:17.430Z,4.80
2023-03-07T22:14:20.254Z,4.27
2023-03-07T22:16:23.136Z,1.90
2023-03-07T22:18:26.481Z,3.37
2023-03-07T22:20:29.324Z,2.27
2023-03-07T22:22:32.098Z,2.10
2023-03-07T22:24:34.970Z,3.30
2023-03-07T22:26:38.334Z,4.53
2023-03-07T22:28:42.774Z,1.73
2023-03-07T22:30:45.608Z,2.10
2023-03-07T22:32:50.580Z,1.20
2023-03-07T22:34:53.373Z,3.70
2023-03-07T22:36:57.386Z,1.70
2023-03-07T22:39:00.142Z,2.27
2023-03-07T22:41:03.689Z,4.77
2023-03-07T22:43:06.498Z,3.27
2023-03-07T22:45:11.809Z,2.93
2023-03-07T22:47:14.558Z,2.93
2023-03-07T22:49:17.846Z,3.67
2023-03-07T22:51:20.965Z,3.60
2023-03-07T22:53:27.258Z,3.57
2023-03-07T22:55:30.055Z,4.00
2023-03-07T22:57:32.986Z,6.93
2023-03-07T22:59:35.787Z,3.07
2023-03-07T23:01:39.902Z,2.27
2023-03-07T23:03:42.976Z,3.13
2023-03-07T23:05:49.964Z,3.93
2023-03-07T23:07:52.693Z,2.07
2023-03-07T23:09:55.519Z,2.87
2023-03-07T23:11:58.566Z,1.90
2023-03-07T23:14:01.655Z,1.93
2023-03-07T23:16:08.117Z,6.37
2023-03-07T23:18:12.271Z,3.30
2023-03-07T23:20:15.278Z,2.77
2023-03-07T23:22:18.021Z,3.40
2023-03-07T23:24:20.823Z,4.00
2023-03-07T23:26:25.614Z,4.37
2023-03-07T23:28:28.402Z,4.43
2023-03-07T23:30:31.143Z,4.13
2023-03-07T23:32:34.064Z,4.10
2023-03-07T23:34:38.163Z,4.27
2023-03-07T23:36:39.952Z,5.63
2023-03-07T23:38:42.664Z,5.73
2023-03-07T23:40:45.639Z,5.00
2023-03-07T23:42:48.410Z,6.50
2023-03-07T23:44:51.177Z,4.80
2023-03-07T23:46:54.029Z,3.87
2023-03-07T23:48:57.430Z,4.23
2023-03-07T23:51:01.553Z,4.37
2023-03-07T23:53:04.337Z,5.07
2023-03-07T23:55:08.998Z,3.90
2023-03-07T23:57:11.716Z,5.03
2023-03-07T23:59:14.422Z,4.70
